sensor_id;sensor_type;location;lat;lon;timestamp;P1;durP1;ratioP1;P2;durP2;ratioP2
15915;SDS011;8057;47.830;-3.870;2022-09-09T01:19:36;13.63;;;3.53;;
15915;SDS011;8057;47.830;-3.870;2022-09-09T01:24:34;14.83;;;3.70;;
15915;SDS011;8057;47.830;-3.870;2022-09-09T01:28:51;10.23;;;3.13;;
15915;SDS011;8057;47.830;-3.870;2022-09-09T01:33:38;16.27;;;3.17;;
15915;SDS011;8057;47.830;-3.870;2022-09-09T01:42:25;10.03;;;3.13;;
15915;SDS011;8057;47.830;-3.870;2022-09-09T01:47:13;12.47;;;3.13;;
15915;SDS011;8057;47.830;-3.870;2022-09-09T01:51:38;11.33;;;3.47;;
15915;SDS011;8057;47.830;-3.870;2022-09-09T02:01:31;14.57;;;3.03;;
15915;SDS011;8057;47.830;-3.870;2022-09-09T02:11:40;14.87;;;3.57;;
15915;SDS011;8057;47.830;-3.870;2022-09-09T02:54:15;10.77;;;3.00;;
15915;SDS011;8057;47.830;-3.870;2022-09-09T02:58:40;12.33;;;3.60;;
15915;SDS011;8057;47.830;-3.870;2022-09-09T03:17:49;14.40;;;3.67;;
15915;SDS011;8057;47.830;-3.870;2022-09-09T03:21:59;11.43;;;3.30;;
15915;SDS011;8057;47.830;-3.870;2022-09-09T03:26:11;10.73;;;3.07;;
15915;SDS011;8057;47.830;-3.870;2022-09-09T03:30:22;21.87;;;3.80;;
15915;SDS011;8057;47.830;-3.870;2022-09-09T03:49:53;14.93;;;3.30;;
15915;SDS011;8057;47.830;-3.870;2022-09-09T03:54:07;9.93;;;3.13;;
15915;SDS011;8057;47.830;-3.870;2022-09-09T03:58:34;12.17;;;3.60;;
15915;SDS011;8057;47.830;-3.870;2022-09-09T04:12:48;12.03;;;3.53;;
15915;SDS011;8057;47.830;-3.870;2022-09-09T04:17:17;10.07;;;3.07;;
15915;SDS011;8057;47.830;-3.870;2022-09-09T04:21:33;9.03;;;3.00;;
15915;SDS011;8057;47.830;-3.870;2022-09-09T04:25:44;12.63;;;3.40;;
15915;SDS011;8057;47.830;-3.870;2022-09-09T04:35:10;11.60;;;3.10;;
15915;SDS011;8057;47.830;-3.870;2022-09-09T04:39:37;8.53;;;2.87;;
15915;SDS011;8057;47.830;-3.870;2022-09-09T04:43:49;15.33;;;3.53;;
15915;SDS011;8057;47.830;-3.870;2022-09-09T04:48:20;13.77;;;3.13;;
15915;SDS011;8057;47.830;-3.870;2022-09-09T04:52:39;13.03;;;3.20;;
15915;SDS011;8057;47.830;-3.870;2022-09-09T04:56:55;11.73;;;3.43;;
15915;SDS011;8057;47.830;-3.870;2022-09-09T05:01:22;9.20;;;3.10;;
15915;SDS011;8057;47.830;-3.870;2022-09-09T05:05:36;10.43;;;3.00;;
15915;SDS011;8057;47.830;-3.870;2022-09-09T05:09:52;11.23;;;3.50;;
15915;SDS011;8057;47.830;-3.870;2022-09-09T05:14:03;12.67;;;3.60;;
15915;SDS011;8057;47.830;-3.870;2022-09-09T05:18:13;12.57;;;3.20;;
15915;SDS011;8057;47.830;-3.870;2022-09-09T05:22:39;13.23;;;3.40;;
15915;SDS011;8057;47.830;-3.870;2022-09-09T05:32:03;10.60;;;3.30;;
15915;SDS011;8057;47.830;-3.870;2022-09-09T05:36:32;16.03;;;3.63;;
15915;SDS011;8057;47.830;-3.870;2022-09-09T05:41:02;12.80;;;3.63;;
15915;SDS011;8057;47.830;-3.870;2022-09-09T05:50:36;15.47;;;3.27;;
15915;SDS011;8057;47.830;-3.870;2022-09-09T05:54:56;12.67;;;3.10;;
15915;SDS011;8057;47.830;-3.870;2022-09-09T05:59:39;13.13;;;2.93;;
15915;SDS011;8057;47.830;-3.870;2022-09-09T06:03:53;9.20;;;2.93;;
15915;SDS011;8057;47.830;-3.870;2022-09-09T06:08:50;11.27;;;3.27;;
15915;SDS011;8057;47.830;-3.870;2022-09-09T06:13:06;12.90;;;3.07;;
15915;SDS011;8057;47.830;-3.870;2022-09-09T06:17:20;12.73;;;2.80;;
15915;SDS011;8057;47.830;-3.870;2022-09-09T06:21:59;13.87;;;2.80;;
15915;SDS011;8057;47.830;-3.870;2022-09-09T06:26:13;12.40;;;2.80;;
15915;SDS011;8057;47.830;-3.870;2022-09-09T06:30:25;12.63;;;3.10;;
15915;SDS011;8057;47.830;-3.870;2022-09-09T06:34:42;12.00;;;3.40;;
15915;SDS011;8057;47.830;-3.870;2022-09-09T06:38:58;13.37;;;3.37;;
15915;SDS011;8057;47.830;-3.870;2022-09-09T06:43:24;13.53;;;3.37;;
15915;SDS011;8057;47.830;-3.870;2022-09-09T06:47:36;14.07;;;3.73;;
15915;SDS011;8057;47.830;-3.870;2022-09-09T07:01:17;11.17;;;2.73;;
15915;SDS011;8057;47.830;-3.870;2022-09-09T07:06:00;10.67;;;2.90;;
15915;SDS011;8057;47.830;-3.870;2022-09-09T07:11:08;8.30;;;3.00;;
15915;SDS011;8057;47.830;-3.870;2022-09-09T07:30:27;10.53;;;3.37;;
15915;SDS011;8057;47.830;-3.870;2022-09-09T07:35:47;10.53;;;2.97;;
15915;SDS011;8057;47.830;-3.870;2022-09-09T07:40:01;10.20;;;2.93;;
15915;SDS011;8057;47.830;-3.870;2022-09-09T07:53:46;9.60;;;3.50;;
15915;SDS011;8057;47.830;-3.870;2022-09-09T08:18:12;4.93;;;1.70;;
15915;SDS011;8057;47.830;-3.870;2022-09-09T08:22:52;4.63;;;1.97;;
15915;SDS011;8057;47.830;-3.870;2022-09-09T08:27:07;6.13;;;2.03;;
15915;SDS011;8057;47.830;-3.870;2022-09-09T08:41:29;5.10;;;1.50;;
15915;SDS011;8057;47.830;-3.870;2022-09-09T08:46:46;4.37;;;1.80;;
15915;SDS011;8057;47.830;-3.870;2022-09-09T08:51:30;7.13;;;2.30;;
15915;SDS011;8057;47.830;-3.870;2022-09-09T08:56:11;7.03;;;1.93;;
15915;SDS011;8057;47.830;-3.870;2022-09-09T09:01:02;6.03;;;1.53;;
15915;SDS011;8057;47.830;-3.870;2022-09-09T09:05:32;9.20;;;2.00;;
15915;SDS011;8057;47.830;-3.870;2022-09-09T09:20:05;11.43;;;3.40;;
15915;SDS011;8057;47.830;-3.870;2022-09-09T09:24:33;13.20;;;3.10;;
15915;SDS011;8057;47.830;-3.870;2022-09-09T09:29:08;13.53;;;3.60;;
15915;SDS011;8057;47.830;-3.870;2022-09-09T09:34:10;6.10;;;1.80;;
15915;SDS011;8057;47.830;-3.870;2022-09-09T09:38:30;6.37;;;1.60;;
15915;SDS011;8057;47.830;-3.870;2022-09-09T09:43:01;8.63;;;2.17;;
15915;SDS011;8057;47.830;-3.870;2022-09-09T09:47:21;3.97;;;1.47;;
15915;SDS011;8057;47.830;-3.870;2022-09-09T10:17:12;7.00;;;2.43;;
15915;SDS011;8057;47.830;-3.870;2022-09-09T10:22:16;7.23;;;2.20;;
15915;SDS011;8057;47.830;-3.870;2022-09-09T10:27:11;9.47;;;2.73;;
15915;SDS011;8057;47.830;-3.870;2022-09-09T10:31:30;7.57;;;1.90;;
15915;SDS011;8057;47.830;-3.870;2022-09-09T10:35:50;6.33;;;2.30;;
15915;SDS011;8057;47.830;-3.870;2022-09-09T10:40:36;8.43;;;2.77;;
15915;SDS011;8057;47.830;-3.870;2022-09-09T10:45:16;10.03;;;2.53;;
15915;SDS011;8057;47.830;-3.870;2022-09-09T11:05:10;8.53;;;2.50;;
15915;SDS011;8057;47.830;-3.870;2022-09-09T11:09:36;9.57;;;2.33;;
15915;SDS011;8057;47.830;-3.870;2022-09-09T11:14:01;6.37;;;2.23;;
15915;SDS011;8057;47.830;-3.870;2022-09-09T11:18:43;4.43;;;1.80;;
15915;SDS011;8057;47.830;-3.870;2022-09-09T11:23:47;5.87;;;2.07;;
15915;SDS011;8057;47.830;-3.870;2022-09-09T11:28:31;6.10;;;2.03;;
15915;SDS011;8057;47.830;-3.870;2022-09-09T11:37:55;7.60;;;1.60;;
15915;SDS011;8057;47.830;-3.870;2022-09-09T11:42:29;3.00;;;1.10;;
15915;SDS011;8057;47.830;-3.870;2022-09-09T11:47:23;5.00;;;1.30;;
15915;SDS011;8057;47.830;-3.870;2022-09-09T11:51:56;3.93;;;1.30;;
15915;SDS011;8057;47.830;-3.870;2022-09-09T12:00:53;6.23;;;1.30;;
15915;SDS011;8057;47.830;-3.870;2022-09-09T12:05:23;2.70;;;1.03;;
15915;SDS011;8057;47.830;-3.870;2022-09-09T12:14:35;2.90;;;1.20;;
15915;SDS011;8057;47.830;-3.870;2022-09-09T12:19:30;4.43;;;1.40;;
15915;SDS011;8057;47.830;-3.870;2022-09-09T12:24:13;4.23;;;1.13;;
15915;SDS011;8057;47.830;-3.870;2022-09-09T12:38:14;4.77;;;1.30;;
15915;SDS011;8057;47.830;-3.870;2022-09-09T12:42:57;4.33;;;1.67;;
15915;SDS011;8057;47.830;-3.870;2022-09-09T12:47:35;2.63;;;1.40;;
15915;SDS011;8057;47.830;-3.870;2022-09-09T12:56:26;6.37;;;2.30;;
15915;SDS011;8057;47.830;-3.870;2022-09-09T13:05:23;12.17;;;2.90;;
15915;SDS011;8057;47.830;-3.870;2022-09-09T13:14:43;6.03;;;1.87;;
15915;SDS011;8057;47.830;-3.870;2022-09-09T13:19:19;7.97;;;2.13;;
15915;SDS011;8057;47.830;-3.870;2022-09-09T13:23:50;8.33;;;2.47;;
15915;SDS011;8057;47.830;-3.870;2022-09-09T13:28:27;6.67;;;1.90;;
15915;SDS011;8057;47.830;-3.870;2022-09-09T13:32:40;8.00;;;2.30;;
15915;SDS011;8057;47.830;-3.870;2022-09-09T13:52:05;8.57;;;2.17;;
15915;SDS011;8057;47.830;-3.870;2022-09-09T14:01:09;4.63;;;1.77;;
15915;SDS011;8057;47.830;-3.870;2022-09-09T14:14:32;3.90;;;1.10;;
15915;SDS011;8057;47.830;-3.870;2022-09-09T14:18:46;5.07;;;1.27;;
15915;SDS011;8057;47.830;-3.870;2022-09-09T14:23:18;5.83;;;1.77;;
15915;SDS011;8057;47.830;-3.870;2022-09-09T14:27:32;5.90;;;1.70;;
15915;SDS011;8057;47.830;-3.870;2022-09-09T14:32:00;6.63;;;1.60;;
15915;SDS011;8057;47.830;-3.870;2022-09-09T14:36:18;10.40;;;2.37;;
15915;SDS011;8057;47.830;-3.870;2022-09-09T14:40:44;6.63;;;1.70;;
15915;SDS011;8057;47.830;-3.870;2022-09-09T14:45:07;7.63;;;1.80;;
15915;SDS011;8057;47.830;-3.870;2022-09-09T14:49:18;8.20;;;2.00;;
15915;SDS011;8057;47.830;-3.870;2022-09-09T14:53:28;7.67;;;2.00;;
15915;SDS011;8057;47.830;-3.870;2022-09-09T14:57:43;6.17;;;1.83;;
15915;SDS011;8057;47.830;-3.870;2022-09-09T15:02:04;8.63;;;1.90;;
15915;SDS011;8057;47.830;-3.870;2022-09-09T15:11:41;4.23;;;1.90;;
15915;SDS011;8057;47.830;-3.870;2022-09-09T15:15:51;4.93;;;1.50;;
15915;SDS011;8057;47.830;-3.870;2022-09-09T15:20:20;6.33;;;1.43;;
15915;SDS011;8057;47.830;-3.870;2022-09-09T15:24:43;3.30;;;1.37;;
15915;SDS011;8057;47.830;-3.870;2022-09-09T15:28:54;2.20;;;0.90;;
15915;SDS011;8057;47.830;-3.870;2022-09-09T15:33:07;3.57;;;1.10;;
15915;SDS011;8057;47.830;-3.870;2022-09-09T15:37:33;2.30;;;1.13;;
15915;SDS011;8057;47.830;-3.870;2022-09-09T15:41:42;2.37;;;1.20;;
15915;SDS011;8057;47.830;-3.870;2022-09-09T15:45:54;1.73;;;0.90;;
15915;SDS011;8057;47.830;-3.870;2022-09-09T15:50:12;4.40;;;1.53;;
15915;SDS011;8057;47.830;-3.870;2022-09-09T15:54:21;7.70;;;1.70;;
15915;SDS011;8057;47.830;-3.870;2022-09-09T15:58:32;7.23;;;2.07;;
15915;SDS011;8057;47.830;-3.870;2022-09-09T16:02:44;6.57;;;1.93;;
15915;SDS011;8057;47.830;-3.870;2022-09-09T16:06:57;5.80;;;2.23;;
15915;SDS011;8057;47.830;-3.870;2022-09-09T16:11:37;8.73;;;1.80;;
15915;SDS011;8057;47.830;-3.870;2022-09-09T16:15:53;6.50;;;1.60;;
15915;SDS011;8057;47.830;-3.870;2022-09-09T16:20:17;8.83;;;2.03;;
15915;SDS011;8057;47.830;-3.870;2022-09-09T16:24:27;8.00;;;2.00;;
15915;SDS011;8057;47.830;-3.870;2022-09-09T16:33:59;7.30;;;2.50;;
15915;SDS011;8057;47.830;-3.870;2022-09-09T16:38:25;9.17;;;1.80;;
15915;SDS011;8057;47.830;-3.870;2022-09-09T16:42:35;7.50;;;2.03;;
15915;SDS011;8057;47.830;-3.870;2022-09-09T16:46:49;10.07;;;2.37;;
15915;SDS011;8057;47.830;-3.870;2022-09-09T17:00:50;8.57;;;2.17;;
15915;SDS011;8057;47.830;-3.870;2022-09-09T17:09:56;7.40;;;2.60;;
15915;SDS011;8057;47.830;-3.870;2022-09-09T17:14:11;10.53;;;2.43;;
15915;SDS011;8057;47.830;-3.870;2022-09-09T17:18:58;7.47;;;2.23;;
15915;SDS011;8057;47.830;-3.870;2022-09-09T17:23:16;7.70;;;1.77;;
15915;SDS011;8057;47.830;-3.870;2022-09-09T17:27:40;4.13;;;1.60;;
15915;SDS011;8057;47.830;-3.870;2022-09-09T17:31:54;5.27;;;1.27;;
15915;SDS011;8057;47.830;-3.870;2022-09-09T17:36:06;3.73;;;1.47;;
15915;SDS011;8057;47.830;-3.870;2022-09-09T17:41:02;5.10;;;1.57;;
15915;SDS011;8057;47.830;-3.870;2022-09-09T17:45:35;6.27;;;1.80;;
15915;SDS011;8057;47.830;-3.870;2022-09-09T17:50:04;4.30;;;1.27;;
15915;SDS011;8057;47.830;-3.870;2022-09-09T17:54:16;4.30;;;1.40;;
15915;SDS011;8057;47.830;-3.870;2022-09-09T17:58:41;3.90;;;1.43;;
15915;SDS011;8057;47.830;-3.870;2022-09-09T18:02:58;6.77;;;1.70;;
15915;SDS011;8057;47.830;-3.870;2022-09-09T18:11:41;4.47;;;1.37;;
15915;SDS011;8057;47.830;-3.870;2022-09-09T18:16:18;3.13;;;1.27;;
15915;SDS011;8057;47.830;-3.870;2022-09-09T18:20:28;5.07;;;1.40;;
15915;SDS011;8057;47.830;-3.870;2022-09-09T18:29:09;6.60;;;1.47;;
15915;SDS011;8057;47.830;-3.870;2022-09-09T18:34:07;4.40;;;1.30;;
15915;SDS011;8057;47.830;-3.870;2022-09-09T18:38:49;3.63;;;1.43;;
15915;SDS011;8057;47.830;-3.870;2022-09-09T18:43:11;5.13;;;1.80;;
15915;SDS011;8057;47.830;-3.870;2022-09-09T18:47:24;4.77;;;1.27;;
15915;SDS011;8057;47.830;-3.870;2022-09-09T18:51:33;5.97;;;1.33;;
15915;SDS011;8057;47.830;-3.870;2022-09-09T18:55:56;5.23;;;1.30;;
15915;SDS011;8057;47.830;-3.870;2022-09-09T19:00:36;3.70;;;1.40;;
15915;SDS011;8057;47.830;-3.870;2022-09-09T19:05:00;4.43;;;1.60;;
15915;SDS011;8057;47.830;-3.870;2022-09-09T19:09:26;6.33;;;1.73;;
15915;SDS011;8057;47.830;-3.870;2022-09-09T19:13:53;4.00;;;1.43;;
15915;SDS011;8057;47.830;-3.870;2022-09-09T19:18:09;6.07;;;1.70;;
15915;SDS011;8057;47.830;-3.870;2022-09-09T19:22:19;2.80;;;1.40;;
15915;SDS011;8057;47.830;-3.870;2022-09-09T19:26:59;4.47;;;1.30;;
15915;SDS011;8057;47.830;-3.870;2022-09-09T19:31:13;4.43;;;1.83;;
15915;SDS011;8057;47.830;-3.870;2022-09-09T19:35:36;6.93;;;1.77;;
15915;SDS011;8057;47.830;-3.870;2022-09-09T19:39:45;6.87;;;2.00;;
15915;SDS011;8057;47.830;-3.870;2022-09-09T19:43:56;3.57;;;1.60;;
15915;SDS011;8057;47.830;-3.870;2022-09-09T19:48:23;5.07;;;1.47;;
15915;SDS011;8057;47.830;-3.870;2022-09-09T19:52:36;5.90;;;1.60;;
15915;SDS011;8057;47.830;-3.870;2022-09-09T19:56:46;6.80;;;1.90;;
15915;SDS011;8057;47.830;-3.870;2022-09-09T20:01:03;5.50;;;1.67;;
15915;SDS011;8057;47.830;-3.870;2022-09-09T20:05:22;7.33;;;1.70;;
15915;SDS011;8057;47.830;-3.870;2022-09-09T20:09:33;6.10;;;2.10;;
15915;SDS011;8057;47.830;-3.870;2022-09-09T20:13:51;2.97;;;1.30;;
15915;SDS011;8057;47.830;-3.870;2022-09-09T20:18:00;3.33;;;1.67;;
15915;SDS011;8057;47.830;-3.870;2022-09-09T20:22:11;5.97;;;1.57;;
15915;SDS011;8057;47.830;-3.870;2022-09-09T20:26:23;5.67;;;1.60;;
15915;SDS011;8057;47.830;-3.870;2022-09-09T20:30:34;6.07;;;1.70;;
15915;SDS011;8057;47.830;-3.870;2022-09-09T20:34:45;5.73;;;1.70;;
15915;SDS011;8057;47.830;-3.870;2022-09-09T20:38:55;4.20;;;1.60;;
15915;SDS011;8057;47.830;-3.870;2022-09-09T20:43:09;4.63;;;1.90;;
15915;SDS011;8057;47.830;-3.870;2022-09-09T20:47:19;5.73;;;2.20;;
15915;SDS011;8057;47.830;-3.870;2022-09-09T20:51:29;6.43;;;2.17;;
15915;SDS011;8057;47.830;-3.870;2022-09-09T20:55:40;4.77;;;1.83;;
15915;SDS011;8057;47.830;-3.870;2022-09-09T20:59:52;6.33;;;2.07;;
15915;SDS011;8057;47.830;-3.870;2022-09-09T21:04:01;5.93;;;1.77;;
15915;SDS011;8057;47.830;-3.870;2022-09-09T21:08:11;5.87;;;1.90;;
15915;SDS011;8057;47.830;-3.870;2022-09-09T21:12:21;4.60;;;2.30;;
15915;SDS011;8057;47.830;-3.870;2022-09-09T21:16:34;8.40;;;2.23;;
15915;SDS011;8057;47.830;-3.870;2022-09-09T21:20:43;7.03;;;1.77;;
15915;SDS011;8057;47.830;-3.870;2022-09-09T21:24:53;7.70;;;2.23;;
15915;SDS011;8057;47.830;-3.870;2022-09-09T21:29:04;7.20;;;2.10;;
15915;SDS011;8057;47.830;-3.870;2022-09-09T21:33:18;8.30;;;2.50;;
15915;SDS011;8057;47.830;-3.870;2022-09-09T21:37:31;9.43;;;2.80;;
15915;SDS011;8057;47.830;-3.870;2022-09-09T21:42:04;6.23;;;2.17;;
15915;SDS011;8057;47.830;-3.870;2022-09-09T21:46:18;7.67;;;2.67;;
15915;SDS011;8057;47.830;-3.870;2022-09-09T21:50:31;5.23;;;2.00;;
15915;SDS011;8057;47.830;-3.870;2022-09-09T21:54:43;8.13;;;2.67;;
15915;SDS011;8057;47.830;-3.870;2022-09-09T21:58:53;6.63;;;2.10;;
15915;SDS011;8057;47.830;-3.870;2022-09-09T22:03:04;9.10;;;2.60;;
15915;SDS011;8057;47.830;-3.870;2022-09-09T22:07:15;4.93;;;1.80;;
15915;SDS011;8057;47.830;-3.870;2022-09-09T22:11:25;10.33;;;2.30;;
15915;SDS011;8057;47.830;-3.870;2022-09-09T22:15:39;5.80;;;2.00;;
15915;SDS011;8057;47.830;-3.870;2022-09-09T22:19:49;3.77;;;2.10;;
15915;SDS011;8057;47.830;-3.870;2022-09-09T22:24:02;7.10;;;2.70;;
15915;SDS011;8057;47.830;-3.870;2022-09-09T22:28:14;7.23;;;2.00;;
15915;SDS011;8057;47.830;-3.870;2022-09-09T22:32:26;8.87;;;2.13;;
15915;SDS011;8057;47.830;-3.870;2022-09-09T22:36:36;6.67;;;2.27;;
15915;SDS011;8057;47.830;-3.870;2022-09-09T22:40:47;7.33;;;2.80;;
15915;SDS011;8057;47.830;-3.870;2022-09-09T22:44:56;8.53;;;2.30;;
15915;SDS011;8057;47.830;-3.870;2022-09-09T22:49:05;8.20;;;2.83;;
15915;SDS011;8057;47.830;-3.870;2022-09-09T22:53:15;7.63;;;2.60;;
15915;SDS011;8057;47.830;-3.870;2022-09-09T22:57:27;7.13;;;2.03;;
15915;SDS011;8057;47.830;-3.870;2022-09-09T23:01:36;12.00;;;2.83;;
15915;SDS011;8057;47.830;-3.870;2022-09-09T23:05:51;5.77;;;2.07;;
15915;SDS011;8057;47.830;-3.870;2022-09-09T23:10:02;7.70;;;2.80;;
15915;SDS011;8057;47.830;-3.870;2022-09-09T23:14:14;8.63;;;2.50;;
15915;SDS011;8057;47.830;-3.870;2022-09-09T23:18:23;4.90;;;1.83;;
15915;SDS011;8057;47.830;-3.870;2022-09-09T23:22:32;6.33;;;2.97;;
15915;SDS011;8057;47.830;-3.870;2022-09-09T23:26:42;8.43;;;2.60;;
15915;SDS011;8057;47.830;-3.870;2022-09-09T23:30:53;9.93;;;2.77;;
15915;SDS011;8057;47.830;-3.870;2022-09-09T23:35:03;7.23;;;2.50;;
15915;SDS011;8057;47.830;-3.870;2022-09-09T23:39:13;8.03;;;2.47;;
15915;SDS011;8057;47.830;-3.870;2022-09-09T23:43:22;4.70;;;1.90;;
15915;SDS011;8057;47.830;-3.870;2022-09-09T23:47:33;7.10;;;2.03;;
15915;SDS011;8057;47.830;-3.870;2022-09-09T23:51:43;7.97;;;2.00;;
15915;SDS011;8057;47.830;-3.870;2022-09-09T23:55:54;8.43;;;2.67;;
